Kelibia, Tunisia
Current Conditions -  °F | °C
As of 1:00 PM on Thursday 30 Oct 2014 (Local Time) from DTTA Reporting Station
Scattered Clouds Scattered Clouds  
Wind Chill: 73°   Ceiling: Unl
Heat Index: 73°   Visibility: 6mi
Dew Point: 55°   Wind: 6mph
Humidity: 53%   Direction: 310°NW
Pressure: 30.15"   Gusts: NA
Location:  36.85°N, 11.09°E
Report Text: DTTA 301200Z 31005KT 9999 SCT026TCU 23/13 Q1021 NOSIG
Loading
Personal Weather Stations






























Interactive Weather Map
Tropical Storm Tracking
New forecast layout! Learn more

10-Day Weather Forecast

Advertisements
Track Severe Weather on mobile